sensor_id;sensor_type;location;lat;lon;timestamp;pressure;altitude;pressure_sealevel;temperature;humidity
42945;BME280;28584;42.636;23.294;2022-10-31T00:01:15;162386.38;;;14.38;63.66
42945;BME280;28584;42.636;23.294;2022-10-31T00:03:41;162359.59;;;14.28;65.18
42945;BME280;28584;42.636;23.294;2022-10-31T00:06:06;162352.91;;;14.26;65.45
42945;BME280;28584;42.636;23.294;2022-10-31T00:08:32;162340.78;;;14.21;66.58
42945;BME280;28584;42.636;23.294;2022-10-31T00:10:57;162335.41;;;14.19;66.91
42945;BME280;28584;42.636;23.294;2022-10-31T00:13:22;162385.03;;;14.38;66.71
42945;BME280;28584;42.636;23.294;2022-10-31T00:15:48;162374.31;;;14.34;66.56
42945;BME280;28584;42.636;23.294;2022-10-31T00:18:13;162386.38;;;14.38;66.66
42945;BME280;28584;42.636;23.294;2022-10-31T00:20:39;162362.25;;;14.29;67.32
42945;BME280;28584;42.636;23.294;2022-10-31T00:23:05;162374.31;;;14.34;67.34
42945;BME280;28584;42.636;23.294;2022-10-31T00:25:36;162330.06;;;14.17;68.99
42945;BME280;28584;42.636;23.294;2022-10-31T00:28:03;162288.53;;;14.02;71.01
42945;BME280;28584;42.636;23.294;2022-10-31T00:30:29;162264.41;;;13.93;72.99
42945;BME280;28584;42.636;23.294;2022-10-31T00:32:55;162220.22;;;13.76;75.98
42945;BME280;28584;42.636;23.294;2022-10-31T00:35:20;162222.91;;;13.77;76.88
42945;BME280;28584;42.636;23.294;2022-10-31T00:37:45;162237.63;;;13.82;76.56
42945;BME280;28584;42.636;23.294;2022-10-31T00:40:11;162260.38;;;13.91;75.97
42945;BME280;28584;42.636;23.294;2022-10-31T00:42:37;162257.72;;;13.90;76.17
42945;BME280;28584;42.636;23.294;2022-10-31T00:45:03;162289.91;;;14.02;75.22
42945;BME280;28584;42.636;23.294;2022-10-31T00:47:29;162305.94;;;14.08;74.54
42945;BME280;28584;42.636;23.294;2022-10-31T00:49:54;162323.38;;;14.15;73.92
42945;BME280;28584;42.636;23.294;2022-10-31T00:52:20;162324.69;;;14.15;73.79
42945;BME280;28584;42.636;23.294;2022-10-31T00:54:45;162311.31;;;14.10;74.44
42945;BME280;28584;42.636;23.294;2022-10-31T00:57:10;162327.41;;;14.16;74.37
42945;BME280;28584;42.636;23.294;2022-10-31T00:59:36;162312.66;;;14.11;75.17
42945;BME280;28584;42.636;23.294;2022-10-31T01:02:01;162327.41;;;14.16;75.14
42945;BME280;28584;42.636;23.294;2022-10-31T01:04:26;162334.09;;;14.19;74.33
42945;BME280;28584;42.636;23.294;2022-10-31T01:06:52;162362.25;;;14.29;73.95
42945;BME280;28584;42.636;23.294;2022-10-31T01:09:17;162364.97;;;14.30;74.19
42945;BME280;28584;42.636;23.294;2022-10-31T01:11:43;162360.94;;;14.29;74.37
42945;BME280;28584;42.636;23.294;2022-10-31T01:14:08;162351.53;;;14.25;75.23
42945;BME280;28584;42.636;23.294;2022-10-31T01:16:34;162364.97;;;14.30;75.02
42945;BME280;28584;42.636;23.294;2022-10-31T01:18:59;162351.53;;;14.25;75.68
42945;BME280;28584;42.636;23.294;2022-10-31T01:21:27;162338.13;;;14.20;76.52
42945;BME280;28584;42.636;23.294;2022-10-31T01:23:54;162342.13;;;14.22;77.12
42945;BME280;28584;42.636;23.294;2022-10-31T01:26:22;162354.19;;;14.26;76.24
42945;BME280;28584;42.636;23.294;2022-10-31T01:28:50;162346.22;;;14.23;77.17
42945;BME280;28584;42.636;23.294;2022-10-31T01:31:17;162360.94;;;14.29;76.60
42945;BME280;28584;42.636;23.294;2022-10-31T01:33:43;162382.38;;;14.37;76.10
42945;BME280;28584;42.636;23.294;2022-10-31T01:36:36;162411.81;;;14.48;74.58
42945;BME280;28584;42.636;23.294;2022-10-31T01:39:07;162434.59;;;14.56;74.05
42945;BME280;28584;42.636;23.294;2022-10-31T01:41:35;162442.66;;;14.59;73.96
42945;BME280;28584;42.636;23.294;2022-10-31T01:46:46;162488.22;;;14.76;72.39
42945;BME280;28584;42.636;23.294;2022-10-31T01:49:20;162497.56;;;14.80;72.10
42945;BME280;28584;42.636;23.294;2022-10-31T01:51:50;162484.19;;;14.75;72.08
42945;BME280;28584;42.636;23.294;2022-10-31T01:54:21;162504.31;;;14.82;71.46
42945;BME280;28584;42.636;23.294;2022-10-31T01:56:50;162486.88;;;14.76;71.63
42945;BME280;28584;42.636;23.294;2022-10-31T01:59:19;162469.47;;;14.69;73.55
42945;BME280;28584;42.636;23.294;2022-10-31T02:01:47;162478.81;;;14.73;73.37
42945;BME280;28584;42.636;23.294;2022-10-31T02:04:13;162496.28;;;14.79;72.11
42945;BME280;28584;42.636;23.294;2022-10-31T02:06:47;162488.22;;;14.76;72.50
42945;BME280;28584;42.636;23.294;2022-10-31T02:09:14;162485.56;;;14.75;73.03
42945;BME280;28584;42.636;23.294;2022-10-31T02:11:41;162474.78;;;14.71;73.33
42945;BME280;28584;42.636;23.294;2022-10-31T02:14:07;162470.81;;;14.70;74.49
42945;BME280;28584;42.636;23.294;2022-10-31T02:16:32;162469.47;;;14.69;74.36
42945;BME280;28584;42.636;23.294;2022-10-31T02:18:58;162492.25;;;14.78;73.53
42945;BME280;28584;42.636;23.294;2022-10-31T02:21:34;162494.91;;;14.79;73.29
42945;BME280;28584;42.636;23.294;2022-10-31T02:26:52;162496.28;;;14.79;73.55
42945;BME280;28584;42.636;23.294;2022-10-31T02:40:42;162297.88;;;14.05;81.49
42945;BME280;28584;42.636;23.294;2022-10-31T02:43:40;162209.53;;;13.72;86.67
42945;BME280;28584;42.636;23.294;2022-10-31T02:46:49;162121.13;;;13.39;92.75
42945;BME280;28584;42.636;23.294;2022-10-31T02:49:28;162087.66;;;13.26;96.97
42945;BME280;28584;42.636;23.294;2022-10-31T02:51:55;162052.84;;;13.13;99.80
42945;BME280;28584;42.636;23.294;2022-10-31T02:54:23;162014.06;;;12.99;100.00
42945;BME280;28584;42.636;23.294;2022-10-31T02:56:51;162008.63;;;12.97;100.00
42945;BME280;28584;42.636;23.294;2022-10-31T02:59:22;162000.59;;;12.94;100.00
42945;BME280;28584;42.636;23.294;2022-10-31T03:01:54;161989.91;;;12.90;100.00
42945;BME280;28584;42.636;23.294;2022-10-31T03:09:45;161976.53;;;12.85;100.00
42945;BME280;28584;42.636;23.294;2022-10-31T03:12:20;161981.88;;;12.87;100.00
42945;BME280;28584;42.636;23.294;2022-10-31T03:17:52;161953.78;;;12.76;100.00
42945;BME280;28584;42.636;23.294;2022-10-31T03:20:24;161957.81;;;12.78;100.00
42945;BME280;28584;42.636;23.294;2022-10-31T03:22:54;161957.81;;;12.78;100.00
42945;BME280;28584;42.636;23.294;2022-10-31T03:25:21;161956.44;;;12.77;100.00
42945;BME280;28584;42.636;23.294;2022-10-31T03:27:47;161943.09;;;12.72;100.00
42945;BME280;28584;42.636;23.294;2022-10-31T03:30:14;161928.38;;;12.67;100.00
42945;BME280;28584;42.636;23.294;2022-10-31T03:32:44;161933.69;;;12.69;100.00
42945;BME280;28584;42.636;23.294;2022-10-31T03:35:15;161940.38;;;12.71;100.00
42945;BME280;28584;42.636;23.294;2022-10-31T03:37:42;161955.09;;;12.77;100.00
42945;BME280;28584;42.636;23.294;2022-10-31T03:40:08;161979.22;;;12.86;100.00
42945;BME280;28584;42.636;23.294;2022-10-31T03:42:39;162020.75;;;13.01;100.00
42945;BME280;28584;42.636;23.294;2022-10-31T03:45:10;162022.09;;;13.02;100.00
42945;BME280;28584;42.636;23.294;2022-10-31T03:47:37;162032.81;;;13.06;100.00
42945;BME280;28584;42.636;23.294;2022-10-31T03:50:05;162056.88;;;13.15;100.00
42945;BME280;28584;42.636;23.294;2022-10-31T03:52:36;162085.00;;;13.25;100.00
42945;BME280;28584;42.636;23.294;2022-10-31T03:55:09;162072.94;;;13.21;100.00
42945;BME280;28584;42.636;23.294;2022-10-31T04:00:08;162015.38;;;12.99;100.00
42945;BME280;28584;42.636;23.294;2022-10-31T04:02:39;161976.53;;;12.85;100.00
42945;BME280;28584;42.636;23.294;2022-10-31T04:05:07;161929.69;;;12.67;100.00
42945;BME280;28584;42.636;23.294;2022-10-31T04:07:37;161882.88;;;12.50;100.00
42945;BME280;28584;42.636;23.294;2022-10-31T04:10:07;161862.81;;;12.42;100.00
42945;BME280;28584;42.636;23.294;2022-10-31T04:12:34;161845.44;;;12.36;100.00
42945;BME280;28584;42.636;23.294;2022-10-31T04:15:02;161845.44;;;12.36;100.00
42945;BME280;28584;42.636;23.294;2022-10-31T04:17:31;161837.38;;;12.33;100.00
42945;BME280;28584;42.636;23.294;2022-10-31T04:19:59;161842.72;;;12.35;100.00
42945;BME280;28584;42.636;23.294;2022-10-31T04:22:25;161836.03;;;12.32;100.00
42945;BME280;28584;42.636;23.294;2022-10-31T04:24:51;161840.06;;;12.34;100.00
42945;BME280;28584;42.636;23.294;2022-10-31T04:27:16;161866.81;;;12.44;100.00
42945;BME280;28584;42.636;23.294;2022-10-31T04:29:41;161862.81;;;12.42;100.00
42945;BME280;28584;42.636;23.294;2022-10-31T04:32:07;161862.81;;;12.42;100.00
42945;BME280;28584;42.636;23.294;2022-10-31T04:34:32;161860.13;;;12.41;100.00
42945;BME280;28584;42.636;23.294;2022-10-31T04:36:57;161878.88;;;12.48;100.00
42945;BME280;28584;42.636;23.294;2022-10-31T04:39:23;161874.84;;;12.47;100.00
42945;BME280;28584;42.636;23.294;2022-10-31T04:41:48;161869.47;;;12.45;100.00
42945;BME280;28584;42.636;23.294;2022-10-31T04:44:14;161880.16;;;12.49;100.00
42945;BME280;28584;42.636;23.294;2022-10-31T04:46:39;161868.16;;;12.44;100.00
42945;BME280;28584;42.636;23.294;2022-10-31T04:49:04;161856.13;;;12.40;100.00
42945;BME280;28584;42.636;23.294;2022-10-31T04:51:30;161864.16;;;12.43;100.00
42945;BME280;28584;42.636;23.294;2022-10-31T04:53:55;161832.03;;;12.31;100.00
42945;BME280;28584;42.636;23.294;2022-10-31T04:56:20;161821.31;;;12.27;100.00
42945;BME280;28584;42.636;23.294;2022-10-31T04:58:46;161842.72;;;12.35;100.00
42945;BME280;28584;42.636;23.294;2022-10-31T05:01:11;161841.41;;;12.34;100.00
42945;BME280;28584;42.636;23.294;2022-10-31T05:03:37;161810.63;;;12.23;100.00
42945;BME280;28584;42.636;23.294;2022-10-31T05:06:04;161805.25;;;12.21;100.00
42945;BME280;28584;42.636;23.294;2022-10-31T05:08:29;161823.97;;;12.28;100.00
42945;BME280;28584;42.636;23.294;2022-10-31T05:10:55;161828.00;;;12.29;100.00
42945;BME280;28584;42.636;23.294;2022-10-31T05:13:24;161841.41;;;12.34;100.00
42945;BME280;28584;42.636;23.294;2022-10-31T05:15:49;161841.41;;;12.34;100.00
42945;BME280;28584;42.636;23.294;2022-10-31T05:18:14;161846.72;;;12.36;100.00
42945;BME280;28584;42.636;23.294;2022-10-31T05:20:40;161869.47;;;12.45;100.00
42945;BME280;28584;42.636;23.294;2022-10-31T05:23:05;161890.88;;;12.53;100.00
42945;BME280;28584;42.636;23.294;2022-10-31T05:25:30;161908.28;;;12.59;100.00
42945;BME280;28584;42.636;23.294;2022-10-31T05:27:56;161924.38;;;12.65;100.00
42945;BME280;28584;42.636;23.294;2022-10-31T05:30:25;161931.03;;;12.68;100.00
42945;BME280;28584;42.636;23.294;2022-10-31T05:32:51;161896.25;;;12.55;100.00
42945;BME280;28584;42.636;23.294;2022-10-31T05:35:22;161868.16;;;12.44;100.00
42945;BME280;28584;42.636;23.294;2022-10-31T05:37:48;161864.16;;;12.43;100.00
42945;BME280;28584;42.636;23.294;2022-10-31T05:40:16;161846.72;;;12.36;100.00
42945;BME280;28584;42.636;23.294;2022-10-31T05:42:42;161826.69;;;12.29;100.00
42945;BME280;28584;42.636;23.294;2022-10-31T05:45:18;161807.97;;;12.22;100.00
42945;BME280;28584;42.636;23.294;2022-10-31T05:47:57;161773.19;;;12.09;100.00
42945;BME280;28584;42.636;23.294;2022-10-31T05:50:24;161761.13;;;12.04;100.00
42945;BME280;28584;42.636;23.294;2022-10-31T05:52:58;161741.06;;;11.97;100.00
42945;BME280;28584;42.636;23.294;2022-10-31T05:55:24;161807.97;;;12.22;100.00
42945;BME280;28584;42.636;23.294;2022-10-31T05:57:51;161904.28;;;12.58;100.00
42945;BME280;28584;42.636;23.294;2022-10-31T06:00:17;162016.72;;;13.00;100.00
42945;BME280;28584;42.636;23.294;2022-10-31T06:02:42;162101.06;;;13.31;100.00
42945;BME280;28584;42.636;23.294;2022-10-31T06:05:08;162182.72;;;13.62;100.00
42945;BME280;28584;42.636;23.294;2022-10-31T06:07:34;162303.28;;;14.07;100.00
42945;BME280;28584;42.636;23.294;2022-10-31T06:10:00;162362.25;;;14.29;100.00
42945;BME280;28584;42.636;23.294;2022-10-31T06:12:26;162363.59;;;14.30;100.00
42945;BME280;28584;42.636;23.294;2022-10-31T06:14:51;162418.50;;;14.50;100.00
42945;BME280;28584;42.636;23.294;2022-10-31T06:17:16;162407.81;;;14.46;100.00
42945;BME280;28584;42.636;23.294;2022-10-31T06:19:42;162393.06;;;14.41;100.00
42945;BME280;28584;42.636;23.294;2022-10-31T06:22:07;162405.13;;;14.45;100.00
42945;BME280;28584;42.636;23.294;2022-10-31T06:24:33;162434.59;;;14.56;100.00
42945;BME280;28584;42.636;23.294;2022-10-31T06:26:58;162506.97;;;14.83;100.00
42945;BME280;28584;42.636;23.294;2022-10-31T06:29:23;162552.56;;;15.00;100.00
42945;BME280;28584;42.636;23.294;2022-10-31T06:31:51;162505.63;;;14.83;100.00
42945;BME280;28584;42.636;23.294;2022-10-31T06:34:16;162525.75;;;14.90;100.00
42945;BME280;28584;42.636;23.294;2022-10-31T06:36:42;162502.97;;;14.82;100.00
42945;BME280;28584;42.636;23.294;2022-10-31T06:39:07;162448.03;;;14.61;100.00
42945;BME280;28584;42.636;23.294;2022-10-31T06:41:32;162529.78;;;14.92;100.00
42945;BME280;28584;42.636;23.294;2022-10-31T06:43:58;162619.56;;;15.25;100.00
42945;BME280;28584;42.636;23.294;2022-10-31T06:46:23;162724.19;;;15.64;93.53
42945;BME280;28584;42.636;23.294;2022-10-31T06:48:50;162810.06;;;15.96;89.35
42945;BME280;28584;42.636;23.294;2022-10-31T06:51:15;162862.38;;;16.16;85.87
42945;BME280;28584;42.636;23.294;2022-10-31T06:53:40;163026.09;;;16.77;78.39
42945;BME280;28584;42.636;23.294;2022-10-31T06:56:06;162991.25;;;16.64;74.72
42945;BME280;28584;42.636;23.294;2022-10-31T06:58:31;163145.59;;;17.22;71.88
42945;BME280;28584;42.636;23.294;2022-10-31T07:00:59;163298.72;;;17.79;67.00
42945;BME280;28584;42.636;23.294;2022-10-31T07:03:25;163449.16;;;18.35;63.39
42945;BME280;28584;42.636;23.294;2022-10-31T07:05:50;163550.03;;;18.72;60.74
42945;BME280;28584;42.636;23.294;2022-10-31T07:08:16;163645.47;;;19.08;58.71
42945;BME280;28584;42.636;23.294;2022-10-31T07:10:42;163700.63;;;19.29;57.25
42945;BME280;28584;42.636;23.294;2022-10-31T07:13:13;163258.44;;;17.64;61.08
42945;BME280;28584;42.636;23.294;2022-10-31T07:15:40;163416.94;;;18.23;60.94
42945;BME280;28584;42.636;23.294;2022-10-31T07:18:07;163258.44;;;17.64;61.65
42945;BME280;28584;42.636;23.294;2022-10-31T07:20:34;163443.81;;;18.33;60.47
42945;BME280;28584;42.636;23.294;2022-10-31T07:22:59;163254.41;;;17.62;62.08
42945;BME280;28584;42.636;23.294;2022-10-31T07:25:26;163419.59;;;18.24;61.19
42945;BME280;28584;42.636;23.294;2022-10-31T07:27:52;163325.59;;;17.89;61.73
42945;BME280;28584;42.636;23.294;2022-10-31T07:30:17;163349.78;;;17.98;60.96
42945;BME280;28584;42.636;23.294;2022-10-31T07:32:47;163406.19;;;18.19;60.26
42945;BME280;28584;42.636;23.294;2022-10-31T07:35:18;163517.75;;;18.60;59.71
42945;BME280;28584;42.636;23.294;2022-10-31T07:37:43;163426.31;;;18.26;59.72
42945;BME280;28584;42.636;23.294;2022-10-31T07:40:09;163438.41;;;18.31;60.09
42945;BME280;28584;42.636;23.294;2022-10-31T07:42:42;163437.09;;;18.30;60.80
42945;BME280;28584;42.636;23.294;2022-10-31T07:45:10;163513.72;;;18.59;59.73
42945;BME280;28584;42.636;23.294;2022-10-31T07:47:39;163544.63;;;18.70;58.64
42945;BME280;28584;42.636;23.294;2022-10-31T07:50:05;163521.78;;;18.62;58.31
42945;BME280;28584;42.636;23.294;2022-10-31T07:52:30;163476.09;;;18.45;58.51
42945;BME280;28584;42.636;23.294;2022-10-31T07:54:56;163578.22;;;18.83;58.48
42945;BME280;28584;42.636;23.294;2022-10-31T07:57:21;163472.06;;;18.43;58.47
42945;BME280;28584;42.636;23.294;2022-10-31T07:59:47;163683.13;;;19.22;56.95
42945;BME280;28584;42.636;23.294;2022-10-31T08:02:12;163344.38;;;17.96;58.89
42945;BME280;28584;42.636;23.294;2022-10-31T08:04:37;163439.78;;;18.31;60.51
42945;BME280;28584;42.636;23.294;2022-10-31T08:07:03;163359.16;;;18.01;60.13
42945;BME280;28584;42.636;23.294;2022-10-31T08:09:28;163376.66;;;18.08;60.00
42945;BME280;28584;42.636;23.294;2022-10-31T08:11:53;163587.66;;;18.86;58.59
42945;BME280;28584;42.636;23.294;2022-10-31T08:14:19;163671.00;;;19.18;57.04
42945;BME280;28584;42.636;23.294;2022-10-31T08:16:44;163720.81;;;19.36;56.49
42945;BME280;28584;42.636;23.294;2022-10-31T08:19:10;163703.28;;;19.30;55.56
42945;BME280;28584;42.636;23.294;2022-10-31T08:21:35;163632.00;;;19.03;56.81
42945;BME280;28584;42.636;23.294;2022-10-31T08:24:01;163813.56;;;19.71;55.53
42945;BME280;28584;42.636;23.294;2022-10-31T08:26:26;163685.78;;;19.23;55.67
42945;BME280;28584;42.636;23.294;2022-10-31T08:28:52;163623.94;;;19.00;56.08
42945;BME280;28584;42.636;23.294;2022-10-31T08:31:20;163580.94;;;18.84;57.15
42945;BME280;28584;42.636;23.294;2022-10-31T08:33:45;163497.63;;;18.53;58.22
42945;BME280;28584;42.636;23.294;2022-10-31T08:36:11;163437.09;;;18.30;58.57
42945;BME280;28584;42.636;23.294;2022-10-31T08:38:36;163394.09;;;18.14;59.47
42945;BME280;28584;42.636;23.294;2022-10-31T08:41:01;163438.41;;;18.31;59.60
42945;BME280;28584;42.636;23.294;2022-10-31T08:43:27;163241.00;;;17.57;61.28
42945;BME280;28584;42.636;23.294;2022-10-31T08:45:52;163312.16;;;17.84;62.35
42945;BME280;28584;42.636;23.294;2022-10-31T08:48:20;163406.19;;;18.19;60.94
42945;BME280;28584;42.636;23.294;2022-10-31T08:50:45;163376.66;;;18.08;61.85
42945;BME280;28584;42.636;23.294;2022-10-31T08:53:16;163372.63;;;18.06;61.73
42945;BME280;28584;42.636;23.294;2022-10-31T08:55:43;163281.28;;;17.72;62.96
42945;BME280;28584;42.636;23.294;2022-10-31T08:58:12;163273.22;;;17.69;64.69
42945;BME280;28584;42.636;23.294;2022-10-31T09:00:38;163292.00;;;17.76;64.82
42945;BME280;28584;42.636;23.294;2022-10-31T09:03:06;163247.69;;;17.60;66.04
42945;BME280;28584;42.636;23.294;2022-10-31T09:05:32;163259.81;;;17.64;66.30
42945;BME280;28584;42.636;23.294;2022-10-31T09:07:59;163283.94;;;17.73;66.12
42945;BME280;28584;42.636;23.294;2022-10-31T09:10:26;163296.03;;;17.78;66.87
42945;BME280;28584;42.636;23.294;2022-10-31T09:15:32;163207.38;;;17.45;68.90
42945;BME280;28584;42.636;23.294;2022-10-31T09:17:58;163273.22;;;17.69;67.88
42945;BME280;28584;42.636;23.294;2022-10-31T09:20:23;163310.81;;;17.83;66.55
42945;BME280;28584;42.636;23.294;2022-10-31T09:22:59;163317.50;;;17.86;65.49
42945;BME280;28584;42.636;23.294;2022-10-31T09:25:25;163341.72;;;17.95;66.01
42945;BME280;28584;42.636;23.294;2022-10-31T09:27:51;163387.38;;;18.12;66.81
42945;BME280;28584;42.636;23.294;2022-10-31T09:30:20;163379.31;;;18.09;66.91
42945;BME280;28584;42.636;23.294;2022-10-31T09:32:45;163373.94;;;18.07;65.24
42945;BME280;28584;42.636;23.294;2022-10-31T09:35:11;163412.91;;;18.21;63.44
42945;BME280;28584;42.636;23.294;2022-10-31T09:37:36;163486.84;;;18.49;62.25
42945;BME280;28584;42.636;23.294;2022-10-31T09:40:01;163516.44;;;18.60;62.35
42945;BME280;28584;42.636;23.294;2022-10-31T09:47:52;163519.09;;;18.61;62.31
42945;BME280;28584;42.636;23.294;2022-10-31T09:50:25;163494.91;;;18.52;62.23
42945;BME280;28584;42.636;23.294;2022-10-31T09:53:21;163532.53;;;18.66;61.63
42945;BME280;28584;42.636;23.294;2022-10-31T09:55:47;163462.66;;;18.40;62.36
42945;BME280;28584;42.636;23.294;2022-10-31T09:58:18;163437.09;;;18.30;61.95
42945;BME280;28584;42.636;23.294;2022-10-31T10:00:46;163497.63;;;18.53;61.63
42945;BME280;28584;42.636;23.294;2022-10-31T10:05:54;163548.66;;;18.72;60.41
42945;BME280;28584;42.636;23.294;2022-10-31T10:08:26;163586.28;;;18.86;59.71
42945;BME280;28584;42.636;23.294;2022-10-31T10:22:10;163749.00;;;19.47;53.78
42945;BME280;28584;42.636;23.294;2022-10-31T10:27:30;163706.03;;;19.31;53.80
42945;BME280;28584;42.636;23.294;2022-10-31T10:30:26;163753.06;;;19.48;53.47
42945;BME280;28584;42.636;23.294;2022-10-31T10:32:52;163794.75;;;19.64;52.68
42945;BME280;28584;42.636;23.294;2022-10-31T10:35:29;163761.13;;;19.51;52.06
42945;BME280;28584;42.636;23.294;2022-10-31T10:38:19;163785.34;;;19.60;52.17
42945;BME280;28584;42.636;23.294;2022-10-31T10:40:45;163798.78;;;19.65;51.73
42945;BME280;28584;42.636;23.294;2022-10-31T10:43:29;163804.19;;;19.67;51.50
42945;BME280;28584;42.636;23.294;2022-10-31T10:51:31;163790.69;;;19.62;50.93
42945;BME280;28584;42.636;23.294;2022-10-31T10:59:27;163859.28;;;19.88;50.79
42945;BME280;28584;42.636;23.294;2022-10-31T11:01:54;163831.03;;;19.77;50.51
42945;BME280;28584;42.636;23.294;2022-10-31T11:04:34;163788.03;;;19.61;50.49
42945;BME280;28584;42.636;23.294;2022-10-31T11:07:08;163792.06;;;19.63;50.78
42945;BME280;28584;42.636;23.294;2022-10-31T11:09:35;163812.22;;;19.70;50.59
42945;BME280;28584;42.636;23.294;2022-10-31T11:12:08;163792.06;;;19.63;50.68
42945;BME280;28584;42.636;23.294;2022-10-31T11:14:48;163809.53;;;19.69;50.31
42945;BME280;28584;42.636;23.294;2022-10-31T11:17:26;163847.19;;;19.83;50.47
42945;BME280;28584;42.636;23.294;2022-10-31T11:22:36;163907.72;;;20.06;49.77
42945;BME280;28584;42.636;23.294;2022-10-31T11:27:42;163884.84;;;19.97;49.96
42945;BME280;28584;42.636;23.294;2022-10-31T11:30:09;163903.69;;;20.04;50.00
42945;BME280;28584;42.636;23.294;2022-10-31T11:32:43;163898.31;;;20.02;49.25
42945;BME280;28584;42.636;23.294;2022-10-31T11:35:14;163937.34;;;20.17;49.78
42945;BME280;28584;42.636;23.294;2022-10-31T11:37:43;163949.47;;;20.21;49.89
42945;BME280;28584;42.636;23.294;2022-10-31T11:40:25;163944.13;;;20.19;49.34
42945;BME280;28584;42.636;23.294;2022-10-31T11:42:52;163941.38;;;20.18;49.43
42945;BME280;28584;42.636;23.294;2022-10-31T11:47:49;163973.72;;;20.30;49.33
42945;BME280;28584;42.636;23.294;2022-10-31T11:50:24;163984.47;;;20.34;49.28
42945;BME280;28584;42.636;23.294;2022-10-31T11:52:51;163996.56;;;20.39;49.72
42945;BME280;28584;42.636;23.294;2022-10-31T11:55:38;163995.22;;;20.38;49.38
42945;BME280;28584;42.636;23.294;2022-10-31T11:58:04;163949.47;;;20.21;48.98
42945;BME280;28584;42.636;23.294;2022-10-31T12:00:30;163969.66;;;20.29;49.26
42945;BME280;28584;42.636;23.294;2022-10-31T12:05:42;163987.13;;;20.35;49.13
42945;BME280;28584;42.636;23.294;2022-10-31T12:08:11;164000.63;;;20.40;49.47
42945;BME280;28584;42.636;23.294;2022-10-31T12:13:33;164014.06;;;20.45;49.08
42945;BME280;28584;42.636;23.294;2022-10-31T12:16:11;164035.56;;;20.53;49.30
42945;BME280;28584;42.636;23.294;2022-10-31T12:21:38;164040.97;;;20.55;48.85
42945;BME280;28584;42.636;23.294;2022-10-31T12:24:49;164035.56;;;20.53;49.45
42945;BME280;28584;42.636;23.294;2022-10-31T12:30:21;164040.97;;;20.55;49.37
42945;BME280;28584;42.636;23.294;2022-10-31T12:41:07;164038.28;;;20.54;48.67
42945;BME280;28584;42.636;23.294;2022-10-31T12:43:46;164016.72;;;20.46;49.04
42945;BME280;28584;42.636;23.294;2022-10-31T12:57:48;163809.53;;;19.69;52.41
42945;BME280;28584;42.636;23.294;2022-10-31T13:00:18;163750.38;;;19.47;52.72
42945;BME280;28584;42.636;23.294;2022-10-31T13:05:40;163680.38;;;19.21;54.41
42945;BME280;28584;42.636;23.294;2022-10-31T13:08:14;163687.16;;;19.24;54.89
42945;BME280;28584;42.636;23.294;2022-10-31T13:10:50;163623.94;;;19.00;54.83
42945;BME280;28584;42.636;23.294;2022-10-31T13:13:27;163632.00;;;19.03;54.52
42945;BME280;28584;42.636;23.294;2022-10-31T13:16:10;163591.69;;;18.88;54.95
42945;BME280;28584;42.636;23.294;2022-10-31T13:18:44;163566.13;;;18.78;55.28
42945;BME280;28584;42.636;23.294;2022-10-31T13:21:20;163556.75;;;18.75;54.56
42945;BME280;28584;42.636;23.294;2022-10-31T13:23:49;163576.91;;;18.82;54.85
42945;BME280;28584;42.636;23.294;2022-10-31T13:26:38;163610.50;;;18.95;55.17
42945;BME280;28584;42.636;23.294;2022-10-31T13:29:13;163601.06;;;18.91;56.14
42945;BME280;28584;42.636;23.294;2022-10-31T13:31:41;163582.25;;;18.84;55.92
42945;BME280;28584;42.636;23.294;2022-10-31T13:34:28;163555.38;;;18.74;56.41
42945;BME280;28584;42.636;23.294;2022-10-31T13:37:04;163544.63;;;18.70;56.21
42945;BME280;28584;42.636;23.294;2022-10-31T13:42:17;163519.09;;;18.61;55.60
42945;BME280;28584;42.636;23.294;2022-10-31T13:44:43;163498.94;;;18.53;55.99
42945;BME280;28584;42.636;23.294;2022-10-31T13:47:27;163488.19;;;18.49;56.94
42945;BME280;28584;42.636;23.294;2022-10-31T13:50:05;163461.31;;;18.39;57.74
42945;BME280;28584;42.636;23.294;2022-10-31T13:52:31;163447.84;;;18.34;57.84
42945;BME280;28584;42.636;23.294;2022-10-31T13:54:56;163427.69;;;18.27;57.85
42945;BME280;28584;42.636;23.294;2022-10-31T13:57:37;163403.53;;;18.18;58.09
42945;BME280;28584;42.636;23.294;2022-10-31T14:02:48;163390.06;;;18.13;57.21
42945;BME280;28584;42.636;23.294;2022-10-31T14:07:56;163361.88;;;18.02;57.99
42945;BME280;28584;42.636;23.294;2022-10-31T14:10:28;163364.56;;;18.03;58.25
42945;BME280;28584;42.636;23.294;2022-10-31T14:18:24;163314.84;;;17.85;59.39
42945;BME280;28584;42.636;23.294;2022-10-31T14:20:53;163309.44;;;17.83;59.07
42945;BME280;28584;42.636;23.294;2022-10-31T14:23:35;163289.34;;;17.75;59.39
42945;BME280;28584;42.636;23.294;2022-10-31T14:26:36;163269.19;;;17.68;59.54
42945;BME280;28584;42.636;23.294;2022-10-31T14:31:42;163234.25;;;17.55;60.78
42945;BME280;28584;42.636;23.294;2022-10-31T14:53:56;163066.41;;;16.92;63.48
42945;BME280;28584;42.636;23.294;2022-10-31T14:56:35;163035.53;;;16.81;63.89
42945;BME280;28584;42.636;23.294;2022-10-31T14:59:06;163014.06;;;16.73;64.87
42945;BME280;28584;42.636;23.294;2022-10-31T15:01:35;162989.88;;;16.64;66.12
42945;BME280;28584;42.636;23.294;2022-10-31T15:04:18;162957.72;;;16.52;67.58
42945;BME280;28584;42.636;23.294;2022-10-31T15:06:49;162929.44;;;16.41;69.42
42945;BME280;28584;42.636;23.294;2022-10-31T15:09:26;162902.59;;;16.31;71.00